createdAt,value
2023-05-10T00:01:28.474Z,19.56
2023-05-10T00:04:14.834Z,20.19
2023-05-10T00:07:01.086Z,20.32
2023-05-10T00:09:47.230Z,20.32
2023-05-10T00:12:33.341Z,20.42
2023-05-10T00:15:19.575Z,20.38
2023-05-10T00:18:05.906Z,20.21
2023-05-10T00:20:52.279Z,20.18
2023-05-10T00:23:38.430Z,20.33
2023-05-10T00:26:24.559Z,20.23
2023-05-10T00:29:10.778Z,20.45
2023-05-10T00:31:56.917Z,20.55
2023-05-10T00:34:43.086Z,20.44
2023-05-10T00:37:29.285Z,20.36
2023-05-10T00:40:15.696Z,20.38
2023-05-10T00:43:02.096Z,20.19
2023-05-10T00:45:48.443Z,19.98
2023-05-10T00:48:34.850Z,20.01
2023-05-10T00:51:22.108Z,19.99
2023-05-10T00:54:08.246Z,20.25
2023-05-10T00:56:54.589Z,19.87
2023-05-10T00:59:40.868Z,19.38
2023-05-10T01:02:27.570Z,19.89
2023-05-10T01:05:14.287Z,20.05
2023-05-10T01:08:00.649Z,19.55
2023-05-10T01:10:49.258Z,20.15
2023-05-10T01:13:38.483Z,19.40
2023-05-10T01:16:25.620Z,19.53
2023-05-10T01:19:20.643Z,19.49
2023-05-10T01:22:24.836Z,19.70
2023-05-10T01:25:20.000Z,19.38
2023-05-10T01:28:39.800Z,19.71
2023-05-10T01:31:40.464Z,19.75
2023-05-10T01:34:40.934Z,19.42
2023-05-10T01:37:52.924Z,19.50
2023-05-10T01:41:09.817Z,19.40
2023-05-10T01:44:19.094Z,19.74
2023-05-10T01:47:07.706Z,19.87
2023-05-10T01:49:55.349Z,19.88
2023-05-10T01:52:44.068Z,19.52
2023-05-10T01:55:33.187Z,19.84
2023-05-10T01:58:22.730Z,19.49
2023-05-10T02:01:10.079Z,19.49
2023-05-10T02:03:57.604Z,18.91
2023-05-10T02:06:44.169Z,18.71
2023-05-10T02:09:32.696Z,19.42
2023-05-10T02:12:19.446Z,19.15
2023-05-10T02:15:07.418Z,19.15
2023-05-10T02:17:56.275Z,17.90
2023-05-10T02:20:44.092Z,19.66
2023-05-10T02:23:30.799Z,19.65
2023-05-10T02:26:17.509Z,19.68
2023-05-10T02:29:04.108Z,19.16
2023-05-10T02:31:51.985Z,19.35
2023-05-10T02:34:38.867Z,19.07
2023-05-10T02:37:25.857Z,19.22
2023-05-10T02:40:12.371Z,18.64
2023-05-10T02:42:59.288Z,18.92
2023-05-10T02:45:47.565Z,18.41
2023-05-10T02:48:34.032Z,18.45
2023-05-10T02:51:23.775Z,18.95
2023-05-10T02:54:13.336Z,18.26
2023-05-10T02:57:01.732Z,18.29
2023-05-10T02:59:47.882Z,18.51
2023-05-10T03:02:34.112Z,18.71
2023-05-10T03:05:20.775Z,18.93
2023-05-10T03:08:07.188Z,19.07
2023-05-10T03:11:29.241Z,18.95
2023-05-10T03:14:56.615Z,19.09
2023-05-10T03:18:07.395Z,18.64
2023-05-10T03:21:00.088Z,18.91
2023-05-10T03:23:50.711Z,18.91
2023-05-10T03:26:37.558Z,18.05
2023-05-10T03:29:26.090Z,18.75
2023-05-10T03:32:12.281Z,19.15
2023-05-10T03:34:58.381Z,19.15
2023-05-10T03:37:44.551Z,19.23
2023-05-10T03:40:32.218Z,19.18
2023-05-10T03:43:18.342Z,19.46
2023-05-10T03:46:05.493Z,19.05
2023-05-10T03:48:51.654Z,18.96
2023-05-10T03:51:37.885Z,18.80
2023-05-10T03:54:24.085Z,17.58
2023-05-10T03:57:10.200Z,18.73
2023-05-10T03:59:56.373Z,17.95
2023-05-10T04:02:43.179Z,18.72
2023-05-10T04:05:29.671Z,18.96
2023-05-10T04:08:16.693Z,19.03
2023-05-10T04:11:10.791Z,19.05
2023-05-10T04:13:57.160Z,19.08
2023-05-10T04:16:43.319Z,19.06
2023-05-10T04:19:33.124Z,19.13
2023-05-10T04:22:19.253Z,19.16
2023-05-10T04:25:06.390Z,18.71
2023-05-10T04:27:52.542Z,18.91
2023-05-10T04:30:38.877Z,19.07
2023-05-10T04:33:25.174Z,19.15
2023-05-10T04:36:11.300Z,18.67
2023-05-10T04:38:57.475Z,18.76
2023-05-10T04:41:43.641Z,18.96
2023-05-10T04:44:29.993Z,18.96
2023-05-10T04:47:16.574Z,18.62
2023-05-10T04:50:03.622Z,18.98
2023-05-10T04:52:49.740Z,18.84
2023-05-10T04:55:36.024Z,18.71
2023-05-10T04:58:22.186Z,18.70
2023-05-10T05:01:08.611Z,18.89
2023-05-10T05:03:55.010Z,18.66
2023-05-10T05:06:41.300Z,18.94
2023-05-10T05:09:27.486Z,18.23
2023-05-10T05:12:14.386Z,18.62
2023-05-10T05:15:00.644Z,18.46
2023-05-10T05:17:47.004Z,18.41
2023-05-10T05:20:34.636Z,18.46
2023-05-10T05:23:21.133Z,18.84
2023-05-10T05:26:07.242Z,18.79
2023-05-10T05:28:54.865Z,18.41
2023-05-10T05:31:41.071Z,18.51
2023-05-10T05:34:27.338Z,18.41
2023-05-10T05:37:17.747Z,18.79
2023-05-10T05:40:04.362Z,18.93
2023-05-10T05:42:50.518Z,18.92
2023-05-10T05:45:36.705Z,18.74
2023-05-10T05:48:22.839Z,17.80
2023-05-10T05:51:08.969Z,18.66
2023-05-10T05:53:55.565Z,18.59
2023-05-10T05:56:41.807Z,18.64
2023-05-10T05:59:28.429Z,18.73
2023-05-10T06:02:14.635Z,17.86
2023-05-10T06:05:00.829Z,18.81
2023-05-10T06:07:47.037Z,17.84
2023-05-10T06:10:33.263Z,18.65
2023-05-10T06:13:19.504Z,17.43
2023-05-10T06:16:06.080Z,17.59
2023-05-10T06:18:52.241Z,18.32
2023-05-10T06:21:38.431Z,18.19
2023-05-10T06:24:24.612Z,18.61
2023-05-10T06:27:10.730Z,18.85
2023-05-10T06:30:09.284Z,18.90
2023-05-10T06:32:59.098Z,18.96
2023-05-10T06:35:45.331Z,18.46
2023-05-10T06:38:31.513Z,18.75
2023-05-10T06:41:17.653Z,18.84
2023-05-10T06:44:04.158Z,18.88
2023-05-10T06:46:50.357Z,18.36
2023-05-10T06:49:37.372Z,18.69
2023-05-10T06:52:23.674Z,18.53
2023-05-10T06:55:10.058Z,18.40
2023-05-10T06:57:56.306Z,17.15
2023-05-10T07:00:44.027Z,18.08
2023-05-10T07:03:30.233Z,18.30
2023-05-10T07:06:29.319Z,17.50
2023-05-10T07:09:18.877Z,17.33
2023-05-10T07:12:05.140Z,17.50
2023-05-10T07:14:51.302Z,18.06
2023-05-10T07:17:37.587Z,18.26
2023-05-10T07:20:23.977Z,17.90
2023-05-10T07:23:10.188Z,17.78
2023-05-10T07:25:57.656Z,17.70
2023-05-10T07:28:43.754Z,18.03
2023-05-10T07:31:30.038Z,18.33
2023-05-10T07:34:16.361Z,18.76
2023-05-10T07:37:02.518Z,18.90
2023-05-10T07:39:48.648Z,18.78
2023-05-10T07:42:34.763Z,19.14
2023-05-10T07:45:20.925Z,19.33
2023-05-10T07:48:07.104Z,19.46
2023-05-10T07:50:53.255Z,19.52
2023-05-10T07:53:39.455Z,19.26
2023-05-10T07:56:29.769Z,18.09
2023-05-10T07:59:17.202Z,19.19
2023-05-10T08:02:03.440Z,19.51
2023-05-10T08:04:49.646Z,19.63
2023-05-10T08:07:35.893Z,19.05
2023-05-10T08:10:22.172Z,19.76
2023-05-10T08:13:08.321Z,19.53
2023-05-10T08:15:54.494Z,19.25
2023-05-10T08:18:40.737Z,19.34
2023-05-10T08:21:26.890Z,19.48
2023-05-10T08:24:13.098Z,18.80
2023-05-10T08:26:59.296Z,18.15
2023-05-10T08:29:50.015Z,19.32
2023-05-10T08:32:38.218Z,19.71
2023-05-10T08:35:24.859Z,19.09
2023-05-10T08:38:11.000Z,19.13
2023-05-10T08:40:57.391Z,19.14
2023-05-10T08:43:46.544Z,18.69
2023-05-10T08:46:35.392Z,19.65
2023-05-10T08:49:22.004Z,19.51
2023-05-10T08:52:08.696Z,19.84
2023-05-10T08:54:55.024Z,18.92
2023-05-10T08:57:41.204Z,19.90
2023-05-10T09:00:28.622Z,20.21
2023-05-10T09:03:15.208Z,19.49
2023-05-10T09:06:01.653Z,20.11
2023-05-10T09:08:48.007Z,19.39
2023-05-10T09:11:34.184Z,20.06
2023-05-10T09:14:20.569Z,20.17
2023-05-10T09:17:06.737Z,19.78
2023-05-10T09:20:04.316Z,20.82
2023-05-10T09:22:50.436Z,19.94
2023-05-10T09:25:38.862Z,19.28
2023-05-10T09:28:25.087Z,20.37
2023-05-10T09:31:11.290Z,19.75
2023-05-10T09:33:57.541Z,20.09
2023-05-10T09:36:57.171Z,19.40
2023-05-10T09:39:43.297Z,20.48
2023-05-10T09:42:30.030Z,20.47
2023-05-10T09:45:16.497Z,20.59
2023-05-10T09:48:03.831Z,21.40
2023-05-10T09:50:57.547Z,20.91
2023-05-10T09:53:43.681Z,20.30
2023-05-10T09:56:37.762Z,20.32
2023-05-10T09:59:27.179Z,20.31
2023-05-10T10:02:13.797Z,20.42
2023-05-10T10:05:04.031Z,20.27
2023-05-10T10:07:50.760Z,20.50
2023-05-10T10:10:37.008Z,19.94
2023-05-10T10:13:23.209Z,20.64
2023-05-10T10:16:09.929Z,21.02
2023-05-10T10:18:56.870Z,21.43
2023-05-10T10:21:43.018Z,21.41
2023-05-10T10:24:29.252Z,20.73
2023-05-10T10:27:39.095Z,21.37
2023-05-10T10:30:48.131Z,20.42
2023-05-10T10:33:58.070Z,21.85
2023-05-10T10:36:47.290Z,21.57
2023-05-10T10:39:33.447Z,22.02
2023-05-10T10:42:44.407Z,20.54
2023-05-10T10:45:30.524Z,22.12
2023-05-10T10:48:21.130Z,23.10
2023-05-10T10:51:07.425Z,22.07
2023-05-10T10:53:54.270Z,22.20
2023-05-10T10:56:40.404Z,22.01
2023-05-10T10:59:29.752Z,21.92
2023-05-10T11:02:35.491Z,21.83
2023-05-10T11:05:35.320Z,21.51
2023-05-10T11:08:29.669Z,20.88
2023-05-10T11:11:15.854Z,22.15
2023-05-10T11:14:07.216Z,21.98
2023-05-10T11:16:53.508Z,21.17
2023-05-10T11:20:09.800Z,21.38
2023-05-10T11:22:56.067Z,22.32
2023-05-10T11:25:44.344Z,21.60
2023-05-10T11:28:30.683Z,22.07
2023-05-10T11:31:18.002Z,21.52
2023-05-10T11:34:04.187Z,22.62
2023-05-10T11:36:56.668Z,22.62
2023-05-10T11:39:47.474Z,22.25
2023-05-10T11:42:33.881Z,22.34
2023-05-10T11:45:22.016Z,22.85
2023-05-10T11:48:08.611Z,22.85
2023-05-10T11:50:57.289Z,22.14
2023-05-10T11:53:43.408Z,22.31
2023-05-10T11:56:29.743Z,21.97
2023-05-10T11:59:15.921Z,22.36
2023-05-10T12:02:02.242Z,22.52
2023-05-10T12:04:48.483Z,21.99
2023-05-10T12:07:35.278Z,20.83
2023-05-10T12:10:26.636Z,21.17
2023-05-10T12:13:14.547Z,20.79
2023-05-10T12:16:13.315Z,21.45
2023-05-10T12:19:00.848Z,21.44
2023-05-10T12:21:47.507Z,21.21
2023-05-10T12:24:38.413Z,21.51
2023-05-10T12:27:24.561Z,21.30
2023-05-10T12:30:11.356Z,19.87
2023-05-10T12:33:11.525Z,20.68
2023-05-10T12:35:59.651Z,19.94
2023-05-10T12:38:48.356Z,20.24
2023-05-10T12:41:34.705Z,19.58
2023-05-10T12:44:20.972Z,19.66
2023-05-10T12:47:07.289Z,19.26
2023-05-10T12:49:53.478Z,20.05
2023-05-10T12:52:40.187Z,20.37
2023-05-10T12:55:26.308Z,20.30
2023-05-10T12:58:15.761Z,20.88
2023-05-10T13:01:07.321Z,20.57
2023-05-10T13:03:53.587Z,20.62
2023-05-10T13:06:39.740Z,20.42
2023-05-10T13:09:27.339Z,19.76
2023-05-10T13:12:13.518Z,19.94
2023-05-10T13:14:59.724Z,20.87
2023-05-10T13:17:45.869Z,20.32
2023-05-10T13:20:32.119Z,21.43
2023-05-10T13:23:18.240Z,20.51
2023-05-10T13:26:04.373Z,21.38
2023-05-10T13:28:51.801Z,20.66
2023-05-10T13:31:37.965Z,22.01
2023-05-10T13:34:24.550Z,21.55
2023-05-10T13:37:10.698Z,22.36
2023-05-10T13:39:56.839Z,21.96
2023-05-10T13:42:42.973Z,20.95
2023-05-10T13:45:29.109Z,21.42
2023-05-10T13:48:15.817Z,21.17
2023-05-10T13:51:01.941Z,21.66
2023-05-10T13:53:48.196Z,20.86
2023-05-10T13:56:34.932Z,21.14
2023-05-10T13:59:21.092Z,21.00
2023-05-10T14:02:07.316Z,20.96
2023-05-10T14:04:53.540Z,20.46
2023-05-10T14:07:40.050Z,20.74
2023-05-10T14:10:26.194Z,21.03
2023-05-10T14:13:12.570Z,21.20
2023-05-10T14:16:00.730Z,21.33
2023-05-10T14:18:47.115Z,19.79
2023-05-10T14:21:33.524Z,21.21
2023-05-10T14:24:19.764Z,21.31
2023-05-10T14:27:06.267Z,21.14
2023-05-10T14:29:53.463Z,20.49
2023-05-10T14:32:39.706Z,19.98
2023-05-10T14:35:26.074Z,18.92
2023-05-10T14:38:12.764Z,18.82
2023-05-10T14:40:58.911Z,19.08
2023-05-10T14:43:45.091Z,17.84
2023-05-10T14:46:31.263Z,18.60
2023-05-10T14:49:17.407Z,19.13
2023-05-10T14:52:03.535Z,19.34
2023-05-10T14:54:49.652Z,19.23
2023-05-10T14:57:35.832Z,17.94
2023-05-10T15:00:22.687Z,18.71
2023-05-10T15:03:09.620Z,18.05
2023-05-10T15:05:57.794Z,18.26
2023-05-10T15:08:43.950Z,19.07
2023-05-10T15:11:30.132Z,18.59
2023-05-10T15:14:16.312Z,19.30
2023-05-10T15:17:02.791Z,18.85
2023-05-10T15:19:49.557Z,19.40
2023-05-10T15:22:35.756Z,19.48
2023-05-10T15:25:22.880Z,19.32
2023-05-10T15:28:09.034Z,19.35
2023-05-10T15:30:56.381Z,19.38
2023-05-10T15:33:42.530Z,19.61
2023-05-10T15:36:28.657Z,19.64
2023-05-10T15:39:14.833Z,19.23
2023-05-10T15:42:01.804Z,19.24
2023-05-10T15:44:50.465Z,19.35
2023-05-10T15:47:36.638Z,19.27
2023-05-10T15:50:22.780Z,19.11
2023-05-10T15:53:08.919Z,19.36
2023-05-10T15:55:55.115Z,19.49
2023-05-10T15:58:41.507Z,19.35
2023-05-10T16:01:27.948Z,19.55
2023-05-10T16:04:14.098Z,19.63
2023-05-10T16:07:00.240Z,19.71
2023-05-10T16:09:37.500Z,18.74
2023-05-10T16:12:16.428Z,19.25
2023-05-10T16:14:42.770Z,18.95
2023-05-10T16:17:09.585Z,18.83
2023-05-10T16:19:36.115Z,19.02
2023-05-10T16:22:02.785Z,18.82
2023-05-10T16:24:29.118Z,19.57
2023-05-10T16:26:56.082Z,19.57
2023-05-10T16:29:22.644Z,18.85
2023-05-10T16:31:49.210Z,19.67
2023-05-10T16:34:15.875Z,19.80
2023-05-10T16:36:42.004Z,19.74
2023-05-10T16:39:09.252Z,19.85
2023-05-10T16:41:35.566Z,18.72
2023-05-10T16:44:02.976Z,19.02
2023-05-10T16:46:29.458Z,19.56
2023-05-10T16:48:55.730Z,19.48
2023-05-10T16:51:21.965Z,19.37
2023-05-10T16:53:49.013Z,18.73
2023-05-10T16:56:17.293Z,19.16
2023-05-10T16:58:44.012Z,16.37
2023-05-10T17:01:10.292Z,19.63
2023-05-10T17:03:36.548Z,19.17
2023-05-10T17:06:05.274Z,19.66
2023-05-10T17:08:31.876Z,19.83
2023-05-10T17:11:01.721Z,19.66
2023-05-10T17:13:28.367Z,17.97
2023-05-10T17:15:55.128Z,18.49
2023-05-10T17:18:22.020Z,19.16
2023-05-10T17:20:49.015Z,18.88
2023-05-10T17:23:15.677Z,19.64
2023-05-10T17:25:42.497Z,19.42
2023-05-10T17:28:09.295Z,18.34
2023-05-10T17:30:35.835Z,18.33
2023-05-10T17:33:02.090Z,19.42
2023-05-10T17:35:30.989Z,19.45
2023-05-10T17:37:57.698Z,19.57
2023-05-10T17:40:24.116Z,19.54
2023-05-10T17:42:51.619Z,18.77
2023-05-10T17:45:18.373Z,19.41
2023-05-10T17:47:44.978Z,19.33
2023-05-10T17:50:11.606Z,19.18
2023-05-10T17:52:37.809Z,18.40
2023-05-10T17:55:04.362Z,19.25
2023-05-10T17:57:30.684Z,19.35
2023-05-10T17:59:57.126Z,19.33
2023-05-10T18:02:23.325Z,19.29
2023-05-10T18:04:49.701Z,19.12
2023-05-10T18:07:16.399Z,19.17
2023-05-10T18:09:42.741Z,18.41
2023-05-10T18:12:08.937Z,19.14
2023-05-10T18:14:41.187Z,18.51
2023-05-10T18:17:08.732Z,17.83
2023-05-10T18:19:34.887Z,18.57
2023-05-10T18:22:00.971Z,18.84
2023-05-10T18:24:38.493Z,18.59
2023-05-10T18:27:07.255Z,18.51
2023-05-10T18:29:33.455Z,18.88
2023-05-10T18:31:59.688Z,18.96
2023-05-10T18:34:25.749Z,18.93
2023-05-10T18:36:51.959Z,18.81
2023-05-10T18:39:18.254Z,18.84
2023-05-10T18:41:45.033Z,18.86
2023-05-10T18:44:11.190Z,18.65
2023-05-10T18:46:37.697Z,18.80
2023-05-10T18:49:05.071Z,19.00
2023-05-10T18:51:31.120Z,19.04
2023-05-10T18:53:57.456Z,18.93
2023-05-10T18:56:23.634Z,18.91
2023-05-10T18:58:49.777Z,19.05
2023-05-10T19:01:16.078Z,18.97
2023-05-10T19:03:42.164Z,19.03
2023-05-10T19:06:08.516Z,18.85
2023-05-10T19:08:34.691Z,18.84
2023-05-10T19:11:00.766Z,18.86
2023-05-10T19:13:28.113Z,18.79
2023-05-10T19:16:05.193Z,18.83
2023-05-10T19:18:33.377Z,18.66
2023-05-10T19:21:03.732Z,18.26
2023-05-10T19:23:33.785Z,17.87
2023-05-10T19:26:00.354Z,18.83
2023-05-10T19:28:26.802Z,18.73
2023-05-10T19:30:53.005Z,18.78
2023-05-10T19:33:19.181Z,18.94
2023-05-10T19:35:45.278Z,18.83
2023-05-10T19:38:11.337Z,18.88
2023-05-10T19:40:37.477Z,18.85
2023-05-10T19:43:03.527Z,18.82
2023-05-10T19:45:29.581Z,18.72
2023-05-10T19:47:55.751Z,19.03
2023-05-10T19:50:21.897Z,18.92
2023-05-10T19:52:48.769Z,18.89
2023-05-10T19:55:25.557Z,18.70
2023-05-10T19:57:51.714Z,18.56
2023-05-10T20:00:17.845Z,18.78
2023-05-10T20:02:43.928Z,18.83
2023-05-10T20:05:10.021Z,18.71
2023-05-10T20:07:36.541Z,18.83
2023-05-10T20:10:03.588Z,18.61
2023-05-10T20:12:29.673Z,17.40
2023-05-10T20:14:55.914Z,18.03
2023-05-10T20:17:22.089Z,17.88
2023-05-10T20:19:48.224Z,17.87
2023-05-10T20:22:14.293Z,18.38
2023-05-10T20:24:40.333Z,18.07
2023-05-10T20:27:06.420Z,18.19
2023-05-10T20:29:32.831Z,18.42
2023-05-10T20:31:58.983Z,18.37
2023-05-10T20:34:25.057Z,18.01
2023-05-10T20:36:51.133Z,18.09
2023-05-10T20:39:17.264Z,17.67
2023-05-10T20:41:43.816Z,18.00
2023-05-10T20:44:09.888Z,18.08
2023-05-10T20:46:36.075Z,18.09
2023-05-10T20:49:02.274Z,18.02
2023-05-10T20:51:29.679Z,18.05
2023-05-10T20:53:56.648Z,17.60
2023-05-10T20:56:22.698Z,17.88
2023-05-10T20:58:48.735Z,16.88
2023-05-10T21:01:14.849Z,17.67
2023-05-10T21:03:41.052Z,16.82
2023-05-10T21:06:07.098Z,17.37
2023-05-10T21:08:33.185Z,17.68
2023-05-10T21:11:03.977Z,17.61
2023-05-10T21:13:30.033Z,17.63
2023-05-10T21:15:56.149Z,17.88
2023-05-10T21:18:22.254Z,17.51
2023-05-10T21:20:48.655Z,17.57
2023-05-10T21:23:14.739Z,17.76
2023-05-10T21:25:40.806Z,17.73
2023-05-10T21:28:07.032Z,17.78
2023-05-10T21:30:33.472Z,16.38
2023-05-10T21:33:00.964Z,17.86
2023-05-10T21:35:27.379Z,17.83
2023-05-10T21:37:53.449Z,17.81
2023-05-10T21:40:19.906Z,17.79
2023-05-10T21:42:48.602Z,17.44
2023-05-10T21:45:18.868Z,17.72
2023-05-10T21:47:45.178Z,17.89
2023-05-10T21:50:12.151Z,18.13
2023-05-10T21:52:38.565Z,17.42
2023-05-10T21:55:05.460Z,17.62
2023-05-10T21:57:32.052Z,17.53
2023-05-10T21:59:58.121Z,17.76
2023-05-10T22:02:24.375Z,17.92
2023-05-10T22:04:50.657Z,18.03
2023-05-10T22:07:17.018Z,18.13
2023-05-10T22:09:43.194Z,17.96
2023-05-10T22:12:09.292Z,17.98
2023-05-10T22:14:35.380Z,18.05
2023-05-10T22:17:01.499Z,17.99
2023-05-10T22:19:27.585Z,17.54
2023-05-10T22:21:53.656Z,17.52
2023-05-10T22:24:19.717Z,17.52
2023-05-10T22:26:45.815Z,17.97
2023-05-10T22:29:11.867Z,18.07
2023-05-10T22:31:37.997Z,17.74
2023-05-10T22:34:04.117Z,17.62
2023-05-10T22:36:30.888Z,18.00
2023-05-10T22:38:57.224Z,18.00
2023-05-10T22:41:23.288Z,18.13
2023-05-10T22:43:49.420Z,18.02
2023-05-10T22:46:15.773Z,18.00
2023-05-10T22:48:42.909Z,17.14
2023-05-10T22:51:09.137Z,18.08
2023-05-10T22:53:35.204Z,16.94
2023-05-10T22:56:01.393Z,18.09
2023-05-10T22:58:27.604Z,18.14
2023-05-10T23:00:56.855Z,18.13
2023-05-10T23:03:23.025Z,18.12
2023-05-10T23:05:49.432Z,18.05
2023-05-10T23:08:15.530Z,17.55
2023-05-10T23:10:41.904Z,17.84
2023-05-10T23:13:08.199Z,18.10
2023-05-10T23:15:35.527Z,18.19
2023-05-10T23:18:01.958Z,17.97
2023-05-10T23:20:28.251Z,17.51
2023-05-10T23:22:55.540Z,17.95
2023-05-10T23:25:21.633Z,17.58
2023-05-10T23:27:47.711Z,17.84
2023-05-10T23:30:13.872Z,17.98
2023-05-10T23:32:40.000Z,17.91
2023-05-10T23:35:06.788Z,17.85
2023-05-10T23:37:32.840Z,17.85
2023-05-10T23:39:58.904Z,17.81
2023-05-10T23:42:24.968Z,17.97
2023-05-10T23:44:51.717Z,17.95
2023-05-10T23:47:17.776Z,17.92
2023-05-10T23:49:43.878Z,17.90
2023-05-10T23:52:10.007Z,17.00
2023-05-10T23:54:36.209Z,17.48
2023-05-10T23:57:02.565Z,17.66
2023-05-10T23:59:28.632Z,17.53
